sensor_id;sensor_type;location;lat;lon;timestamp;pressure;altitude;pressure_sealevel;temperature;humidity
22647;BME280;11490;42.726;23.268;2022-07-29T00:00:34;95363.41;;;21.16;92.23
22647;BME280;11490;42.726;23.268;2022-07-29T00:02:59;95357.56;;;20.95;92.21
22647;BME280;11490;42.726;23.268;2022-07-29T00:05:24;95361.19;;;20.90;93.03
22647;BME280;11490;42.726;23.268;2022-07-29T00:07:50;95412.19;;;21.21;92.40
22647;BME280;11490;42.726;23.268;2022-07-29T00:10:15;95387.94;;;21.10;91.93
22647;BME280;11490;42.726;23.268;2022-07-29T00:12:41;95382.06;;;20.90;92.52
22647;BME280;11490;42.726;23.268;2022-07-29T00:15:07;95395.56;;;21.08;92.62
22647;BME280;11490;42.726;23.268;2022-07-29T00:17:32;95388.47;;;20.80;93.54
22647;BME280;11490;42.726;23.268;2022-07-29T00:19:59;95386.63;;;20.75;93.83
22647;BME280;11490;42.726;23.268;2022-07-29T00:22:24;95382.38;;;20.56;94.15
22647;BME280;11490;42.726;23.268;2022-07-29T00:24:50;95383.81;;;20.67;93.34
22647;BME280;11490;42.726;23.268;2022-07-29T00:27:16;95421.84;;;20.62;94.25
22647;BME280;11490;42.726;23.268;2022-07-29T00:29:42;95374.59;;;20.30;93.85
22647;BME280;11490;42.726;23.268;2022-07-29T00:32:07;95401.44;;;20.51;94.64
22647;BME280;11490;42.726;23.268;2022-07-29T00:34:33;95388.75;;;20.27;94.90
22647;BME280;11490;42.726;23.268;2022-07-29T00:37:17;95420.91;;;20.34;95.08
22647;BME280;11490;42.726;23.268;2022-07-29T00:39:42;95413.63;;;20.29;94.58
22647;BME280;11490;42.726;23.268;2022-07-29T00:42:08;95391.25;;;20.05;94.88
22647;BME280;11490;42.726;23.268;2022-07-29T00:44:41;95389.63;;;20.04;95.21
22647;BME280;11490;42.726;23.268;2022-07-29T00:47:10;95397.38;;;20.11;95.07
22647;BME280;11490;42.726;23.268;2022-07-29T00:49:36;95385.88;;;20.00;94.11
22647;BME280;11490;42.726;23.268;2022-07-29T00:52:04;95391.44;;;19.90;94.43
22647;BME280;11490;42.726;23.268;2022-07-29T00:54:30;95412.53;;;19.93;94.93
22647;BME280;11490;42.726;23.268;2022-07-29T00:56:59;95418.91;;;20.02;95.62
22647;BME280;11490;42.726;23.268;2022-07-29T00:59:28;95369.69;;;19.76;95.80
22647;BME280;11490;42.726;23.268;2022-07-29T01:01:54;95398.84;;;20.03;95.04
22647;BME280;11490;42.726;23.268;2022-07-29T01:04:21;95378.28;;;20.02;94.46
22647;BME280;11490;42.726;23.268;2022-07-29T01:06:47;95391.75;;;20.07;94.30
22647;BME280;11490;42.726;23.268;2022-07-29T01:09:17;95366.50;;;19.93;93.76
22647;BME280;11490;42.726;23.268;2022-07-29T01:11:45;95371.69;;;19.71;95.65
22647;BME280;11490;42.726;23.268;2022-07-29T01:14:13;95365.53;;;19.84;95.53
22647;BME280;11490;42.726;23.268;2022-07-29T01:16:46;95358.38;;;19.93;94.70
22647;BME280;11490;42.726;23.268;2022-07-29T01:27:51;95373.44;;;19.99;96.95
22647;BME280;11490;42.726;23.268;2022-07-29T01:30:22;95349.28;;;19.84;95.61
22647;BME280;11490;42.726;23.268;2022-07-29T01:32:52;95352.38;;;19.96;95.06
22647;BME280;11490;42.726;23.268;2022-07-29T01:35:35;95377.97;;;20.22;94.13
22647;BME280;11490;42.726;23.268;2022-07-29T01:38:08;95353.34;;;20.05;94.41
22647;BME280;11490;42.726;23.268;2022-07-29T01:40:48;95346.22;;;20.09;94.26
22647;BME280;11490;42.726;23.268;2022-07-29T01:43:16;95359.09;;;20.17;93.58
22647;BME280;11490;42.726;23.268;2022-07-29T01:45:56;95371.13;;;20.11;93.57
22647;BME280;11490;42.726;23.268;2022-07-29T01:48:47;95366.41;;;19.98;94.67
22647;BME280;11490;42.726;23.268;2022-07-29T01:51:19;95365.81;;;19.82;95.64
22647;BME280;11490;42.726;23.268;2022-07-29T01:54:02;95348.78;;;20.01;94.46
22647;BME280;11490;42.726;23.268;2022-07-29T01:56:31;95340.53;;;19.92;97.88
22647;BME280;11490;42.726;23.268;2022-07-29T01:58:59;95357.19;;;19.99;96.12
22647;BME280;11490;42.726;23.268;2022-07-29T02:01:27;95351.22;;;20.02;95.05
22647;BME280;11490;42.726;23.268;2022-07-29T02:03:55;95334.25;;;19.96;94.47
22647;BME280;11490;42.726;23.268;2022-07-29T02:06:23;95370.38;;;20.24;94.28
22647;BME280;11490;42.726;23.268;2022-07-29T02:08:51;95351.22;;;20.02;96.39
22647;BME280;11490;42.726;23.268;2022-07-29T02:11:18;95356.69;;;20.16;95.52
22647;BME280;11490;42.726;23.268;2022-07-29T02:13:44;95341.75;;;19.99;95.41
22647;BME280;11490;42.726;23.268;2022-07-29T02:16:12;95356.41;;;20.17;95.98
22647;BME280;11490;42.726;23.268;2022-07-29T02:18:40;95339.63;;;20.15;95.85
22647;BME280;11490;42.726;23.268;2022-07-29T02:21:07;95336.25;;;20.23;95.26
22647;BME280;11490;42.726;23.268;2022-07-29T02:23:34;95343.19;;;20.29;94.94
22647;BME280;11490;42.726;23.268;2022-07-29T02:26:01;95360.91;;;20.22;95.85
22647;BME280;11490;42.726;23.268;2022-07-29T02:28:29;95332.53;;;20.19;95.14
22647;BME280;11490;42.726;23.268;2022-07-29T02:30:58;95337.13;;;20.38;94.94
22647;BME280;11490;42.726;23.268;2022-07-29T02:33:25;95311.34;;;20.21;95.58
22647;BME280;11490;42.726;23.268;2022-07-29T02:35:52;95291.50;;;20.12;97.61
22647;BME280;11490;42.726;23.268;2022-07-29T02:38:18;95319.00;;;20.19;96.95
22647;BME280;11490;42.726;23.268;2022-07-29T02:41:20;95314.16;;;20.16;96.46
22647;BME280;11490;42.726;23.268;2022-07-29T02:43:50;95327.59;;;20.21;97.48
22647;BME280;11490;42.726;23.268;2022-07-29T02:46:29;95311.34;;;20.21;96.92
22647;BME280;11490;42.726;23.268;2022-07-29T02:54:55;95330.41;;;20.16;97.03
22647;BME280;11490;42.726;23.268;2022-07-29T02:57:43;95343.16;;;20.34;96.22
22647;BME280;11490;42.726;23.268;2022-07-29T03:00:10;95314.91;;;20.03;96.84
22647;BME280;11490;42.726;23.268;2022-07-29T03:02:43;95320.16;;;20.13;96.45
22647;BME280;11490;42.726;23.268;2022-07-29T03:05:14;95345.91;;;20.29;96.61
22647;BME280;11490;42.726;23.268;2022-07-29T03:07:43;95314.69;;;20.18;95.92
22647;BME280;11490;42.726;23.268;2022-07-29T03:10:10;95330.97;;;20.13;95.63
22647;BME280;11490;42.726;23.268;2022-07-29T03:12:36;95336.19;;;20.10;95.93
22647;BME280;11490;42.726;23.268;2022-07-29T03:15:03;95329.13;;;19.95;96.05
22647;BME280;11490;42.726;23.268;2022-07-29T03:17:29;95319.28;;;19.99;96.06
22647;BME280;11490;42.726;23.268;2022-07-29T03:19:57;95332.34;;;19.97;97.37
22647;BME280;11490;42.726;23.268;2022-07-29T03:22:24;95309.44;;;19.89;97.47
22647;BME280;11490;42.726;23.268;2022-07-29T03:24:50;95323.09;;;19.98;96.91
22647;BME280;11490;42.726;23.268;2022-07-29T03:27:15;95316.00;;;19.83;96.92
22647;BME280;11490;42.726;23.268;2022-07-29T03:29:41;95302.28;;;19.80;97.14
22647;BME280;11490;42.726;23.268;2022-07-29T03:32:09;95338.47;;;19.84;97.88
22647;BME280;11490;42.726;23.268;2022-07-29T03:34:36;95332.84;;;19.80;97.88
22647;BME280;11490;42.726;23.268;2022-07-29T03:37:01;95357.03;;;19.90;99.31
22647;BME280;11490;42.726;23.268;2022-07-29T03:39:29;95335.75;;;19.84;99.54
22647;BME280;11490;42.726;23.268;2022-07-29T03:41:58;95327.72;;;19.79;99.06
22647;BME280;11490;42.726;23.268;2022-07-29T03:44:26;95348.06;;;19.95;98.76
22647;BME280;11490;42.726;23.268;2022-07-29T03:46:53;95361.88;;;19.75;100.00
22647;BME280;11490;42.726;23.268;2022-07-29T03:49:21;95339.28;;;19.66;100.00
22647;BME280;11490;42.726;23.268;2022-07-29T03:51:47;95341.25;;;19.79;98.53
22647;BME280;11490;42.726;23.268;2022-07-29T03:54:13;95332.25;;;19.83;98.63
22647;BME280;11490;42.726;23.268;2022-07-29T03:56:41;95334.31;;;19.73;98.61
22647;BME280;11490;42.726;23.268;2022-07-29T03:59:08;95363.22;;;19.96;99.08
22647;BME280;11490;42.726;23.268;2022-07-29T04:01:36;95351.94;;;19.89;98.38
22647;BME280;11490;42.726;23.268;2022-07-29T04:04:04;95353.41;;;20.00;98.50
22647;BME280;11490;42.726;23.268;2022-07-29T04:06:38;95372.31;;;20.05;97.89
22647;BME280;11490;42.726;23.268;2022-07-29T04:09:03;95334.72;;;19.98;98.51
22647;BME280;11490;42.726;23.268;2022-07-29T04:11:29;95327.59;;;19.89;97.77
22647;BME280;11490;42.726;23.268;2022-07-29T04:13:54;95322.66;;;19.91;98.26
22647;BME280;11490;42.726;23.268;2022-07-29T04:16:20;95313.88;;;19.99;97.69
22647;BME280;11490;42.726;23.268;2022-07-29T04:18:45;95343.84;;;20.21;98.26
22647;BME280;11490;42.726;23.268;2022-07-29T04:21:10;95311.34;;;20.21;96.90
22647;BME280;11490;42.726;23.268;2022-07-29T04:23:36;95334.94;;;20.40;97.19
22647;BME280;11490;42.726;23.268;2022-07-29T04:26:01;95361.38;;;20.48;96.15
22647;BME280;11490;42.726;23.268;2022-07-29T04:28:27;95354.47;;;20.55;95.95
22647;BME280;11490;42.726;23.268;2022-07-29T04:30:52;95340.31;;;20.58;95.58
22647;BME280;11490;42.726;23.268;2022-07-29T04:33:17;95355.53;;;20.73;95.32
22647;BME280;11490;42.726;23.268;2022-07-29T04:35:43;95354.31;;;20.79;95.17
22647;BME280;11490;42.726;23.268;2022-07-29T04:38:08;95363.13;;;20.71;95.01
22647;BME280;11490;42.726;23.268;2022-07-29T04:40:33;95345.88;;;20.67;95.37
22647;BME280;11490;42.726;23.268;2022-07-29T04:43:01;95382.59;;;21.05;95.30
22647;BME280;11490;42.726;23.268;2022-07-29T04:45:27;95374.66;;;21.09;95.47
22647;BME280;11490;42.726;23.268;2022-07-29T04:47:53;95354.56;;;20.96;95.60
22647;BME280;11490;42.726;23.268;2022-07-29T04:50:18;95345.69;;;20.77;95.97
22647;BME280;11490;42.726;23.268;2022-07-29T04:52:44;95365.31;;;21.01;96.42
22647;BME280;11490;42.726;23.268;2022-07-29T04:55:09;95385.91;;;21.16;95.50
22647;BME280;11490;42.726;23.268;2022-07-29T04:57:35;95373.84;;;20.95;96.18
22647;BME280;11490;42.726;23.268;2022-07-29T05:00:00;95386.53;;;21.13;95.76
22647;BME280;11490;42.726;23.268;2022-07-29T05:02:26;95379.97;;;21.14;95.64
22647;BME280;11490;42.726;23.268;2022-07-29T05:04:51;95387.00;;;21.01;95.72
22647;BME280;11490;42.726;23.268;2022-07-29T05:07:17;95375.34;;;21.01;95.21
22647;BME280;11490;42.726;23.268;2022-07-29T05:09:42;95393.34;;;21.10;94.82
22647;BME280;11490;42.726;23.268;2022-07-29T05:12:08;95363.19;;;20.98;94.83
22647;BME280;11490;42.726;23.268;2022-07-29T05:14:33;95372.84;;;21.04;95.00
22647;BME280;11490;42.726;23.268;2022-07-29T05:16:59;95368.22;;;21.05;93.84
22647;BME280;11490;42.726;23.268;2022-07-29T05:19:24;95374.88;;;21.12;94.13
22647;BME280;11490;42.726;23.268;2022-07-29T05:21:50;95369.63;;;21.02;94.06
22647;BME280;11490;42.726;23.268;2022-07-29T05:24:15;95372.44;;;20.97;93.02
22647;BME280;11490;42.726;23.268;2022-07-29T05:26:41;95382.34;;;21.21;93.93
22647;BME280;11490;42.726;23.268;2022-07-29T05:29:07;95369.63;;;21.02;94.21
22647;BME280;11490;42.726;23.268;2022-07-29T05:31:33;95383.50;;;21.14;95.43
22647;BME280;11490;42.726;23.268;2022-07-29T05:33:58;95373.66;;;21.05;95.67
22647;BME280;11490;42.726;23.268;2022-07-29T05:36:24;95391.59;;;21.20;94.58
22647;BME280;11490;42.726;23.268;2022-07-29T05:38:49;95374.63;;;21.28;93.81
22647;BME280;11490;42.726;23.268;2022-07-29T05:41:17;95358.19;;;21.05;94.37
22647;BME280;11490;42.726;23.268;2022-07-29T05:43:42;95383.34;;;21.25;93.63
22647;BME280;11490;42.726;23.268;2022-07-29T05:46:08;95384.16;;;21.39;92.61
22647;BME280;11490;42.726;23.268;2022-07-29T05:48:33;95376.94;;;21.34;92.32
22647;BME280;11490;42.726;23.268;2022-07-29T05:50:59;95407.50;;;21.67;91.96
22647;BME280;11490;42.726;23.268;2022-07-29T05:53:24;95393.28;;;21.70;92.26
22647;BME280;11490;42.726;23.268;2022-07-29T05:55:50;95406.88;;;21.98;92.24
22647;BME280;11490;42.726;23.268;2022-07-29T05:58:15;95360.28;;;21.77;90.51
22647;BME280;11490;42.726;23.268;2022-07-29T06:00:41;95380.09;;;21.91;90.69
22647;BME280;11490;42.726;23.268;2022-07-29T06:03:06;95408.50;;;21.99;89.79
22647;BME280;11490;42.726;23.268;2022-07-29T06:05:31;95406.41;;;22.18;89.30
22647;BME280;11490;42.726;23.268;2022-07-29T06:07:57;95415.09;;;22.20;89.03
22647;BME280;11490;42.726;23.268;2022-07-29T06:10:22;95402.97;;;22.26;88.25
22647;BME280;11490;42.726;23.268;2022-07-29T06:12:51;95419.81;;;22.50;90.00
22647;BME280;11490;42.726;23.268;2022-07-29T06:15:16;95398.88;;;22.15;89.86
22647;BME280;11490;42.726;23.268;2022-07-29T06:17:42;95395.34;;;22.28;91.08
22647;BME280;11490;42.726;23.268;2022-07-29T06:20:07;95391.97;;;22.31;90.03
22647;BME280;11490;42.726;23.268;2022-07-29T06:22:33;95388.06;;;22.37;90.71
22647;BME280;11490;42.726;23.268;2022-07-29T06:24:58;95392.88;;;22.62;87.96
22647;BME280;11490;42.726;23.268;2022-07-29T06:27:24;95380.34;;;22.53;89.58
22647;BME280;11490;42.726;23.268;2022-07-29T06:29:49;95352.09;;;22.62;87.49
22647;BME280;11490;42.726;23.268;2022-07-29T06:32:17;95392.28;;;22.88;87.17
22647;BME280;11490;42.726;23.268;2022-07-29T06:34:45;95358.84;;;22.87;88.86
22647;BME280;11490;42.726;23.268;2022-07-29T06:43:19;95383.13;;;23.46;85.93
22647;BME280;11490;42.726;23.268;2022-07-29T06:45:44;95368.53;;;23.41;84.33
22647;BME280;11490;42.726;23.268;2022-07-29T06:48:10;95390.75;;;23.66;84.52
22647;BME280;11490;42.726;23.268;2022-07-29T06:50:35;95385.66;;;23.73;83.61
22647;BME280;11490;42.726;23.268;2022-07-29T06:53:01;95378.78;;;23.75;84.08
22647;BME280;11490;42.726;23.268;2022-07-29T06:55:27;95386.97;;;24.01;83.73
22647;BME280;11490;42.726;23.268;2022-07-29T06:57:52;95389.56;;;24.06;81.87
22647;BME280;11490;42.726;23.268;2022-07-29T07:00:17;95372.44;;;24.14;77.16
22647;BME280;11490;42.726;23.268;2022-07-29T07:02:43;95351.94;;;24.26;74.88
22647;BME280;11490;42.726;23.268;2022-07-29T07:05:08;95374.84;;;24.25;72.37
22647;BME280;11490;42.726;23.268;2022-07-29T07:07:34;95353.72;;;24.22;72.48
22647;BME280;11490;42.726;23.268;2022-07-29T07:09:59;95364.28;;;24.32;71.47
22647;BME280;11490;42.726;23.268;2022-07-29T07:12:24;95375.03;;;24.54;70.99
22647;BME280;11490;42.726;23.268;2022-07-29T07:14:50;95367.31;;;24.73;70.23
22647;BME280;11490;42.726;23.268;2022-07-29T07:17:15;95365.75;;;24.46;69.32
22647;BME280;11490;42.726;23.268;2022-07-29T07:19:41;95388.63;;;24.88;69.39
22647;BME280;11490;42.726;23.268;2022-07-29T07:22:06;95381.69;;;25.17;69.80
22647;BME280;11490;42.726;23.268;2022-07-29T07:24:31;95365.47;;;25.12;68.20
22647;BME280;11490;42.726;23.268;2022-07-29T07:26:58;95375.53;;;25.37;69.22
22647;BME280;11490;42.726;23.268;2022-07-29T07:29:24;95369.03;;;25.50;69.40
22647;BME280;11490;42.726;23.268;2022-07-29T07:31:50;95352.38;;;25.35;64.84
22647;BME280;11490;42.726;23.268;2022-07-29T07:34:15;95339.94;;;25.54;67.47
22647;BME280;11490;42.726;23.268;2022-07-29T07:36:40;95345.06;;;25.94;70.85
22647;BME280;11490;42.726;23.268;2022-07-29T07:39:06;95345.66;;;25.99;64.80
22647;BME280;11490;42.726;23.268;2022-07-29T07:41:32;95384.06;;;26.32;65.82
22647;BME280;11490;42.726;23.268;2022-07-29T07:43:57;95347.00;;;26.35;65.87
22647;BME280;11490;42.726;23.268;2022-07-29T07:46:23;95364.31;;;26.18;62.67
22647;BME280;11490;42.726;23.268;2022-07-29T07:48:48;95344.34;;;26.26;64.67
22647;BME280;11490;42.726;23.268;2022-07-29T07:51:13;95342.56;;;26.30;61.58
22647;BME280;11490;42.726;23.268;2022-07-29T07:53:39;95342.56;;;26.30;61.67
22647;BME280;11490;42.726;23.268;2022-07-29T07:56:05;95357.13;;;26.76;66.54
22647;BME280;11490;42.726;23.268;2022-07-29T07:58:31;95343.03;;;26.32;61.31
22647;BME280;11490;42.726;23.268;2022-07-29T08:00:58;95333.41;;;26.26;60.73
22647;BME280;11490;42.726;23.268;2022-07-29T08:03:23;95332.78;;;26.41;62.57
22647;BME280;11490;42.726;23.268;2022-07-29T08:05:49;95335.69;;;26.78;63.54
22647;BME280;11490;42.726;23.268;2022-07-29T08:08:17;95334.81;;;26.86;63.10
22647;BME280;11490;42.726;23.268;2022-07-29T08:10:42;95337.19;;;27.20;62.15
22647;BME280;11490;42.726;23.268;2022-07-29T08:13:25;95359.63;;;27.02;58.54
22647;BME280;11490;42.726;23.268;2022-07-29T08:15:52;95375.56;;;27.33;60.80
22647;BME280;11490;42.726;23.268;2022-07-29T08:18:29;95352.47;;;27.22;58.50
22647;BME280;11490;42.726;23.268;2022-07-29T08:20:55;95353.56;;;27.66;61.12
22647;BME280;11490;42.726;23.268;2022-07-29T08:23:21;95369.81;;;27.95;58.63
22647;BME280;11490;42.726;23.268;2022-07-29T08:25:48;95364.66;;;27.81;57.71
22647;BME280;11490;42.726;23.268;2022-07-29T08:28:14;95365.44;;;27.82;58.82
22647;BME280;11490;42.726;23.268;2022-07-29T08:30:39;95368.53;;;27.80;58.94
22647;BME280;11490;42.726;23.268;2022-07-29T08:33:05;95376.06;;;28.08;58.14
22647;BME280;11490;42.726;23.268;2022-07-29T08:35:31;95342.69;;;28.06;57.60
22647;BME280;11490;42.726;23.268;2022-07-29T08:37:56;95334.50;;;27.93;58.20
22647;BME280;11490;42.726;23.268;2022-07-29T08:40:22;95346.78;;;28.12;55.84
22647;BME280;11490;42.726;23.268;2022-07-29T08:42:49;95366.16;;;28.55;53.70
22647;BME280;11490;42.726;23.268;2022-07-29T08:45:15;95355.84;;;28.64;54.72
22647;BME280;11490;42.726;23.268;2022-07-29T08:47:41;95365.19;;;28.76;54.73
22647;BME280;11490;42.726;23.268;2022-07-29T08:50:08;95367.56;;;29.05;53.64
22647;BME280;11490;42.726;23.268;2022-07-29T08:52:36;95369.78;;;28.99;52.71
22647;BME280;11490;42.726;23.268;2022-07-29T08:55:04;95347.72;;;28.96;52.41
22647;BME280;11490;42.726;23.268;2022-07-29T08:57:30;95349.25;;;28.81;53.07
22647;BME280;11490;42.726;23.268;2022-07-29T08:59:57;95330.63;;;28.75;52.26
22647;BME280;11490;42.726;23.268;2022-07-29T09:02:27;95322.88;;;28.77;52.01
22647;BME280;11490;42.726;23.268;2022-07-29T09:04:54;95347.34;;;28.97;51.17
22647;BME280;11490;42.726;23.268;2022-07-29T09:07:21;95345.56;;;29.33;50.80
22647;BME280;11490;42.726;23.268;2022-07-29T09:09:47;95329.44;;;29.63;52.33
22647;BME280;11490;42.726;23.268;2022-07-29T09:12:12;95315.34;;;28.33;50.55
22647;BME280;11490;42.726;23.268;2022-07-29T09:14:39;95349.78;;;29.30;54.08
22647;BME280;11490;42.726;23.268;2022-07-29T09:17:05;95331.56;;;29.38;50.88
22647;BME280;11490;42.726;23.268;2022-07-29T09:19:33;95335.56;;;29.72;51.64
22647;BME280;11490;42.726;23.268;2022-07-29T09:22:04;95337.66;;;29.78;51.03
22647;BME280;11490;42.726;23.268;2022-07-29T09:27:21;95306.13;;;29.57;48.63
22647;BME280;11490;42.726;23.268;2022-07-29T09:30:03;95343.63;;;29.80;52.30
22647;BME280;11490;42.726;23.268;2022-07-29T09:32:31;95316.03;;;29.61;49.76
22647;BME280;11490;42.726;23.268;2022-07-29T09:35:18;95340.75;;;30.08;48.36
22647;BME280;11490;42.726;23.268;2022-07-29T09:37:44;95319.06;;;29.56;47.85
22647;BME280;11490;42.726;23.268;2022-07-29T09:40:19;95310.03;;;30.06;48.88
22647;BME280;11490;42.726;23.268;2022-07-29T09:42:45;95297.59;;;29.62;49.26
22647;BME280;11490;42.726;23.268;2022-07-29T09:45:12;95337.31;;;29.80;46.49
22647;BME280;11490;42.726;23.268;2022-07-29T09:47:46;95312.56;;;29.80;45.19
22647;BME280;11490;42.726;23.268;2022-07-29T09:50:14;95302.56;;;29.72;45.80
22647;BME280;11490;42.726;23.268;2022-07-29T09:52:48;95310.81;;;29.72;45.75
22647;BME280;11490;42.726;23.268;2022-07-29T09:55:14;95300.91;;;30.02;48.40
22647;BME280;11490;42.726;23.268;2022-07-29T09:57:40;95302.69;;;30.49;47.39
22647;BME280;11490;42.726;23.268;2022-07-29T10:00:14;95289.22;;;30.25;45.08
22647;BME280;11490;42.726;23.268;2022-07-29T10:02:42;95290.22;;;30.16;44.48
22647;BME280;11490;42.726;23.268;2022-07-29T10:05:38;95309.03;;;29.79;44.66
22647;BME280;11490;42.726;23.268;2022-07-29T10:08:04;95272.56;;;30.17;45.66
22647;BME280;11490;42.726;23.268;2022-07-29T10:10:35;95282.09;;;30.04;45.18
22647;BME280;11490;42.726;23.268;2022-07-29T10:13:06;95268.50;;;30.11;45.75
22647;BME280;11490;42.726;23.268;2022-07-29T10:15:37;95270.81;;;30.29;48.29
22647;BME280;11490;42.726;23.268;2022-07-29T10:18:06;95246.34;;;30.23;45.35
22647;BME280;11490;42.726;23.268;2022-07-29T10:20:32;95280.00;;;30.36;45.49
22647;BME280;11490;42.726;23.268;2022-07-29T10:22:58;95264.59;;;30.32;44.48
22647;BME280;11490;42.726;23.268;2022-07-29T10:25:25;95276.91;;;30.38;43.91
22647;BME280;11490;42.726;23.268;2022-07-29T10:27:51;95255.19;;;30.33;43.75
22647;BME280;11490;42.726;23.268;2022-07-29T10:30:18;95280.53;;;30.42;44.96
22647;BME280;11490;42.726;23.268;2022-07-29T10:33:21;95278.63;;;30.84;43.97
22647;BME280;11490;42.726;23.268;2022-07-29T10:38:45;95285.97;;;31.19;42.58
22647;BME280;11490;42.726;23.268;2022-07-29T10:44:02;95244.88;;;31.10;41.78
22647;BME280;11490;42.726;23.268;2022-07-29T10:46:34;95219.97;;;30.61;41.71
22647;BME280;11490;42.726;23.268;2022-07-29T10:52:11;95256.22;;;31.28;40.41
22647;BME280;11490;42.726;23.268;2022-07-29T10:54:45;95260.50;;;31.52;42.34
22647;BME280;11490;42.726;23.268;2022-07-29T10:57:27;95255.69;;;31.45;41.90
22647;BME280;11490;42.726;23.268;2022-07-29T11:05:04;95231.91;;;31.86;39.72
22647;BME280;11490;42.726;23.268;2022-07-29T11:07:32;95213.38;;;31.87;40.83
22647;BME280;11490;42.726;23.268;2022-07-29T11:15:10;95225.28;;;31.64;40.98
22647;BME280;11490;42.726;23.268;2022-07-29T11:18:06;95245.44;;;31.95;39.58
22647;BME280;11490;42.726;23.268;2022-07-29T11:20:46;95234.59;;;31.56;40.27
22647;BME280;11490;42.726;23.268;2022-07-29T11:25:44;95202.00;;;31.62;40.07
22647;BME280;11490;42.726;23.268;2022-07-29T11:28:19;95194.41;;;31.55;39.92
22647;BME280;11490;42.726;23.268;2022-07-29T11:30:51;95183.66;;;31.73;40.57
22647;BME280;11490;42.726;23.268;2022-07-29T11:33:31;95198.00;;;31.33;40.59
22647;BME280;11490;42.726;23.268;2022-07-29T11:36:11;95199.50;;;31.80;41.45
22647;BME280;11490;42.726;23.268;2022-07-29T11:38:40;95179.94;;;31.35;39.43
22647;BME280;11490;42.726;23.268;2022-07-29T11:41:28;95223.09;;;31.77;41.19
22647;BME280;11490;42.726;23.268;2022-07-29T11:43:55;95217.66;;;31.81;39.77
22647;BME280;11490;42.726;23.268;2022-07-29T11:49:11;95184.53;;;31.81;38.82
22647;BME280;11490;42.726;23.268;2022-07-29T11:51:39;95179.88;;;31.58;38.27
22647;BME280;11490;42.726;23.268;2022-07-29T11:54:09;95171.16;;;31.56;40.59
22647;BME280;11490;42.726;23.268;2022-07-29T11:56:38;95206.47;;;31.21;39.51
22647;BME280;11490;42.726;23.268;2022-07-29T11:59:08;95167.94;;;31.02;40.86
22647;BME280;11490;42.726;23.268;2022-07-29T12:01:35;95163.06;;;31.14;41.01
22647;BME280;11490;42.726;23.268;2022-07-29T12:04:05;95197.75;;;31.68;41.39
22647;BME280;11490;42.726;23.268;2022-07-29T12:06:32;95186.69;;;31.64;40.08
22647;BME280;11490;42.726;23.268;2022-07-29T12:08:57;95188.47;;;31.80;40.04
22647;BME280;11490;42.726;23.268;2022-07-29T12:11:23;95165.03;;;31.40;38.90
22647;BME280;11490;42.726;23.268;2022-07-29T12:13:50;95189.88;;;31.66;40.70
22647;BME280;11490;42.726;23.268;2022-07-29T12:16:16;95158.59;;;31.59;39.60
22647;BME280;11490;42.726;23.268;2022-07-29T12:18:41;95183.59;;;31.69;39.67
22647;BME280;11490;42.726;23.268;2022-07-29T12:21:06;95172.75;;;31.57;39.51
22647;BME280;11490;42.726;23.268;2022-07-29T12:23:33;95147.22;;;31.34;39.88
22647;BME280;11490;42.726;23.268;2022-07-29T12:25:59;95190.28;;;31.68;38.96
22647;BME280;11490;42.726;23.268;2022-07-29T12:28:27;95177.75;;;31.48;39.70
22647;BME280;11490;42.726;23.268;2022-07-29T12:30:56;95149.97;;;31.34;40.07
22647;BME280;11490;42.726;23.268;2022-07-29T12:33:25;95141.03;;;31.44;40.48
22647;BME280;11490;42.726;23.268;2022-07-29T12:35:59;95141.25;;;31.58;39.00
22647;BME280;11490;42.726;23.268;2022-07-29T12:38:25;95149.94;;;31.60;39.76
22647;BME280;11490;42.726;23.268;2022-07-29T12:40:52;95176.25;;;31.81;39.42
22647;BME280;11490;42.726;23.268;2022-07-29T12:43:20;95182.69;;;31.92;39.00
22647;BME280;11490;42.726;23.268;2022-07-29T12:45:48;95125.72;;;31.73;38.63
22647;BME280;11490;42.726;23.268;2022-07-29T12:48:15;95169.00;;;31.99;38.69
22647;BME280;11490;42.726;23.268;2022-07-29T12:50:58;95161.91;;;31.98;38.67
22647;BME280;11490;42.726;23.268;2022-07-29T12:53:25;95132.13;;;31.54;38.17
22647;BME280;11490;42.726;23.268;2022-07-29T12:55:52;95132.03;;;31.21;38.42
22647;BME280;11490;42.726;23.268;2022-07-29T12:58:34;95159.03;;;31.34;38.68
22647;BME280;11490;42.726;23.268;2022-07-29T13:01:12;95129.19;;;31.40;37.82
22647;BME280;11490;42.726;23.268;2022-07-29T13:03:44;95128.13;;;31.48;38.89
22647;BME280;11490;42.726;23.268;2022-07-29T13:09:00;95142.00;;;31.82;38.10
22647;BME280;11490;42.726;23.268;2022-07-29T13:11:36;95153.13;;;31.89;37.12
22647;BME280;11490;42.726;23.268;2022-07-29T13:14:03;95123.53;;;31.59;38.39
22647;BME280;11490;42.726;23.268;2022-07-29T13:16:29;95118.16;;;31.40;38.24
22647;BME280;11490;42.726;23.268;2022-07-29T13:19:11;95131.69;;;31.79;39.24
22647;BME280;11490;42.726;23.268;2022-07-29T13:21:38;95120.94;;;31.70;37.47
22647;BME280;11490;42.726;23.268;2022-07-29T13:24:06;95141.31;;;31.92;37.62
22647;BME280;11490;42.726;23.268;2022-07-29T13:26:31;95094.53;;;31.69;38.24
22647;BME280;11490;42.726;23.268;2022-07-29T13:28:57;95111.94;;;31.73;37.86
22647;BME280;11490;42.726;23.268;2022-07-29T13:31:22;95115.22;;;31.86;37.76
22647;BME280;11490;42.726;23.268;2022-07-29T13:33:48;95124.84;;;31.99;37.31
22647;BME280;11490;42.726;23.268;2022-07-29T13:36:13;95095.88;;;31.52;37.40
22647;BME280;11490;42.726;23.268;2022-07-29T13:38:39;95105.03;;;31.60;38.13
22647;BME280;11490;42.726;23.268;2022-07-29T13:41:05;95094.38;;;31.58;37.96
22647;BME280;11490;42.726;23.268;2022-07-29T13:43:32;95112.59;;;31.63;38.92
22647;BME280;11490;42.726;23.268;2022-07-29T13:46:06;95101.63;;;31.66;38.57